createdAt,value
2018-11-11T00:01:39.982Z,95165.00
2018-11-11T00:04:11.564Z,95155.00
2018-11-11T00:06:43.933Z,95161.00
2018-11-11T00:09:15.177Z,95146.00
2018-11-11T00:11:46.542Z,95144.00
2018-11-11T00:14:17.321Z,95153.00
2018-11-11T00:16:48.020Z,95163.00
2018-11-11T00:19:18.765Z,95182.00
2018-11-11T00:21:49.502Z,95170.00
2018-11-11T00:24:20.290Z,95162.00
2018-11-11T00:26:51.382Z,95143.00
2018-11-11T00:29:21.839Z,95148.00
2018-11-11T00:31:52.282Z,95167.00
2018-11-11T00:34:22.937Z,95149.00
2018-11-11T00:36:54.109Z,95148.00
2018-11-11T00:39:24.505Z,95156.00
2018-11-11T00:41:54.832Z,95172.00
2018-11-11T00:44:25.627Z,95165.00
2018-11-11T00:46:55.923Z,95177.00
2018-11-11T00:49:26.551Z,95182.00
2018-11-11T00:51:57.027Z,95193.00
2018-11-11T00:54:27.439Z,95207.00
2018-11-11T00:56:57.788Z,95192.00
2018-11-11T00:59:28.245Z,95206.00
2018-11-11T01:01:58.574Z,95213.00
2018-11-11T01:04:29.442Z,95221.00
2018-11-11T01:06:59.862Z,95227.00
2018-11-11T01:09:30.586Z,95245.00
2018-11-11T01:12:00.953Z,95247.00
2018-11-11T01:14:31.612Z,95234.00
2018-11-11T01:17:02.006Z,95238.00
2018-11-11T01:19:32.415Z,95244.00
2018-11-11T01:22:04.883Z,95240.00
2018-11-11T01:24:35.314Z,95237.00
2018-11-11T01:27:05.954Z,95239.00
2018-11-11T01:29:36.329Z,95227.00
2018-11-11T01:32:06.960Z,95229.00
2018-11-11T01:34:37.473Z,95223.00
2018-11-11T01:37:07.871Z,95234.00
2018-11-11T01:39:38.227Z,95228.00
2018-11-11T01:42:08.536Z,95227.00
2018-11-11T01:44:39.050Z,95219.00
2018-11-11T01:47:09.414Z,95224.00
2018-11-11T01:49:39.705Z,95221.00
2018-11-11T01:52:10.182Z,95225.00
2018-11-11T01:54:40.973Z,95224.00
2018-11-11T01:57:15.421Z,95212.00
2018-11-11T01:59:46.167Z,95220.00
2018-11-11T02:02:17.721Z,95217.00
2018-11-11T02:04:48.286Z,95217.00
2018-11-11T02:07:18.609Z,95225.00
2018-11-11T02:09:49.071Z,95222.00
2018-11-11T02:12:19.374Z,95219.00
2018-11-11T02:14:49.859Z,95221.00
2018-11-11T02:17:20.266Z,95223.00
2018-11-11T02:19:51.091Z,95228.00
2018-11-11T02:22:21.519Z,95216.00
2018-11-11T02:24:52.114Z,95213.00
2018-11-11T02:27:22.438Z,95208.00
2018-11-11T02:29:53.778Z,95212.00
2018-11-11T02:32:24.383Z,95211.00
2018-11-11T02:34:54.726Z,95212.00
2018-11-11T02:37:25.088Z,95204.00
2018-11-11T02:39:55.340Z,95207.00
2018-11-11T02:42:25.681Z,95206.00
2018-11-11T02:44:56.026Z,95203.00
2018-11-11T02:47:26.936Z,95202.00
2018-11-11T02:49:57.628Z,95210.00
2018-11-11T02:52:28.284Z,95198.00
2018-11-11T02:54:59.006Z,95205.00
2018-11-11T02:57:29.460Z,95209.00
2018-11-11T03:00:02.004Z,95209.00
2018-11-11T03:02:32.434Z,95206.00
2018-11-11T03:05:02.941Z,95217.00
2018-11-11T03:07:33.421Z,95225.00
2018-11-11T03:10:03.912Z,95215.00
2018-11-11T03:12:34.616Z,95243.00
2018-11-11T03:15:06.608Z,95231.00
2018-11-11T03:17:37.649Z,95236.00
2018-11-11T03:20:10.143Z,95228.00
2018-11-11T03:22:40.733Z,95224.00
2018-11-11T03:25:13.267Z,95217.00
2018-11-11T03:27:44.699Z,95227.00
2018-11-11T03:30:16.488Z,95239.00
2018-11-11T03:32:47.179Z,95233.00
2018-11-11T03:35:19.925Z,95228.00
2018-11-11T03:37:50.346Z,95230.00
2018-11-11T03:40:22.323Z,95235.00
2018-11-11T03:42:52.726Z,95240.00
2018-11-11T03:45:23.196Z,95268.00
2018-11-11T03:47:53.721Z,95236.00
2018-11-11T03:50:24.275Z,95244.00
2018-11-11T03:52:54.739Z,95228.00
2018-11-11T03:55:25.313Z,95225.00
2018-11-11T03:57:55.962Z,95230.00
2018-11-11T04:00:26.495Z,95246.00
2018-11-11T04:02:56.799Z,95253.00
2018-11-11T04:05:27.334Z,95253.00
2018-11-11T04:07:57.624Z,95234.00
2018-11-11T04:10:28.112Z,95232.00
2018-11-11T04:12:58.647Z,95235.00
2018-11-11T04:15:29.162Z,95231.00
2018-11-11T04:17:59.737Z,95231.00
2018-11-11T04:20:30.160Z,95235.00
2018-11-11T04:23:00.647Z,95254.00
2018-11-11T04:25:31.224Z,95256.00
2018-11-11T04:28:01.754Z,95250.00
2018-11-11T04:30:32.267Z,95051.00
2018-11-11T04:33:02.670Z,95252.00
2018-11-11T04:35:33.070Z,95244.00
2018-11-11T04:38:03.450Z,95243.00
2018-11-11T04:40:33.850Z,95249.00
2018-11-11T04:43:04.259Z,95235.00
2018-11-11T04:45:34.624Z,95233.00
2018-11-11T04:48:05.039Z,95245.00
2018-11-11T04:50:35.416Z,95245.00
2018-11-11T04:53:05.859Z,95249.00
2018-11-11T04:55:36.309Z,95246.00
2018-11-11T04:58:06.733Z,95254.00
2018-11-11T05:00:37.163Z,95256.00
2018-11-11T05:03:07.570Z,95235.00
2018-11-11T05:05:37.957Z,95232.00
2018-11-11T05:08:08.475Z,95233.00
2018-11-11T05:10:38.931Z,95236.00
2018-11-11T05:13:09.325Z,95251.00
2018-11-11T05:15:39.965Z,95256.00
2018-11-11T05:18:10.535Z,95291.00
2018-11-11T05:20:40.967Z,95258.00
2018-11-11T05:23:11.299Z,95257.00
2018-11-11T05:25:41.685Z,95262.00
2018-11-11T05:28:12.000Z,95271.00
2018-11-11T05:30:42.364Z,95254.00
2018-11-11T05:33:12.728Z,95244.00
2018-11-11T05:35:43.395Z,95232.00
2018-11-11T05:38:14.026Z,95233.00
2018-11-11T05:40:44.346Z,95253.00
2018-11-11T05:43:14.647Z,95258.00
2018-11-11T05:45:45.033Z,95262.00
2018-11-11T05:48:15.430Z,95253.00
2018-11-11T05:50:45.858Z,95253.00
2018-11-11T05:53:16.214Z,95250.00
2018-11-11T05:55:46.557Z,95249.00
2018-11-11T05:58:17.045Z,95256.00
2018-11-11T06:00:47.475Z,95250.00
2018-11-11T06:03:17.924Z,95241.00
2018-11-11T06:05:48.310Z,95250.00
2018-11-11T06:08:18.657Z,95227.00
2018-11-11T06:10:49.013Z,95237.00
2018-11-11T06:13:19.366Z,95245.00
2018-11-11T06:15:49.773Z,95256.00
2018-11-11T06:18:20.161Z,95258.00
2018-11-11T06:20:50.776Z,95259.00
2018-11-11T06:23:21.083Z,95258.00
2018-11-11T06:25:51.443Z,95255.00
2018-11-11T06:28:21.766Z,95255.00
2018-11-11T06:30:52.371Z,95275.00
2018-11-11T06:33:22.751Z,95294.00
2018-11-11T06:35:53.329Z,95310.00
2018-11-11T06:38:23.768Z,95296.00
2018-11-11T06:40:54.214Z,95298.00
2018-11-11T06:43:24.693Z,95287.00
2018-11-11T06:45:54.990Z,95303.00
2018-11-11T06:48:25.781Z,95296.00
2018-11-11T06:50:57.331Z,95301.00
2018-11-11T06:53:27.894Z,95305.00
2018-11-11T06:55:58.350Z,95306.00
2018-11-11T06:58:28.694Z,95311.00
2018-11-11T07:00:59.097Z,95311.00
2018-11-11T07:03:57.546Z,95312.00
2018-11-11T07:06:28.679Z,95320.00
2018-11-11T07:08:59.070Z,95325.00
2018-11-11T07:11:30.262Z,95326.00
2018-11-11T07:14:00.568Z,95322.00
2018-11-11T07:16:30.947Z,95321.00
2018-11-11T07:19:01.345Z,95319.00
2018-11-11T07:21:31.704Z,95309.00
2018-11-11T07:24:02.117Z,95309.00
2018-11-11T07:26:32.524Z,95328.00
2018-11-11T07:29:02.907Z,95352.00
2018-11-11T07:31:33.527Z,95355.00
2018-11-11T07:34:04.052Z,95389.00
2018-11-11T07:36:35.231Z,95429.00
2018-11-11T07:39:10.747Z,95439.00
2018-11-11T07:41:41.216Z,95446.00
2018-11-11T07:44:11.538Z,95463.00
2018-11-11T07:46:41.866Z,95485.00
2018-11-11T07:49:12.406Z,95484.00
2018-11-11T07:51:43.014Z,95491.00
2018-11-11T07:54:13.488Z,95488.00
2018-11-11T07:56:43.926Z,95497.00
2018-11-11T07:59:14.543Z,95473.00
2018-11-11T08:01:45.139Z,95480.00
2018-11-11T08:04:15.312Z,95470.00
2018-11-11T08:06:46.064Z,95466.00
2018-11-11T08:09:16.549Z,95471.00
2018-11-11T08:12:04.939Z,95461.00
2018-11-11T08:14:35.326Z,95449.00
2018-11-11T08:17:05.698Z,95450.00
2018-11-11T08:19:36.173Z,95446.00
2018-11-11T08:22:08.418Z,95436.00
2018-11-11T08:24:38.742Z,95447.00
2018-11-11T08:27:09.077Z,95461.00
2018-11-11T08:29:39.367Z,95460.00
2018-11-11T08:32:10.363Z,95463.00
2018-11-11T08:34:40.766Z,95471.00
2018-11-11T08:37:11.048Z,95470.00
2018-11-11T08:39:41.442Z,95454.00
2018-11-11T08:42:11.766Z,95454.00
2018-11-11T08:44:42.051Z,95451.00
2018-11-11T08:47:12.367Z,95460.00
2018-11-11T08:49:42.612Z,95443.00
2018-11-11T08:52:13.870Z,95453.00
2018-11-11T08:54:44.181Z,95439.00
2018-11-11T08:57:19.421Z,95437.00
2018-11-11T08:59:50.707Z,95434.00
2018-11-11T09:02:21.263Z,95445.00
2018-11-11T09:04:51.614Z,95449.00
2018-11-11T09:07:22.014Z,95447.00
2018-11-11T09:09:52.345Z,95449.00
2018-11-11T09:12:22.668Z,95436.00
2018-11-11T09:14:53.236Z,95451.00
2018-11-11T09:17:23.542Z,95459.00
2018-11-11T09:19:53.980Z,95452.00
2018-11-11T09:22:24.559Z,95452.00
2018-11-11T09:24:55.037Z,95452.00
2018-11-11T09:27:25.538Z,95452.00
2018-11-11T09:29:55.976Z,95467.00
2018-11-11T09:32:26.394Z,95473.00
2018-11-11T09:34:56.815Z,95474.00
2018-11-11T09:37:27.318Z,95482.00
2018-11-11T09:39:57.677Z,95480.00
2018-11-11T09:42:28.976Z,95476.00
2018-11-11T09:44:59.286Z,95474.00
2018-11-11T09:47:29.963Z,95468.00
2018-11-11T09:50:01.077Z,95473.00
2018-11-11T09:52:31.476Z,95477.00
2018-11-11T09:55:02.492Z,95478.00
2018-11-11T09:57:33.649Z,95465.00
2018-11-11T10:00:05.350Z,95469.00
2018-11-11T10:02:35.772Z,95470.00
2018-11-11T10:05:11.844Z,95471.00
2018-11-11T10:07:50.412Z,95476.00
2018-11-11T10:11:25.199Z,95480.00
2018-11-11T10:14:01.150Z,95491.00
2018-11-11T10:16:36.331Z,95482.00
2018-11-11T10:20:10.216Z,95490.00
2018-11-11T10:22:44.383Z,95499.00
2018-11-11T10:25:23.654Z,95503.00
2018-11-11T10:28:05.223Z,95509.00
2018-11-11T10:31:45.411Z,95502.00
2018-11-11T10:34:25.995Z,95507.00
2018-11-11T10:37:03.215Z,95496.00
2018-11-11T10:39:37.903Z,95488.00
2018-11-11T10:42:14.090Z,95478.00
2018-11-11T10:44:51.239Z,95479.00
2018-11-11T10:47:32.352Z,95465.00
2018-11-11T10:50:05.254Z,95453.00
2018-11-11T10:52:35.760Z,95441.00
2018-11-11T10:55:06.275Z,95438.00
2018-11-11T10:57:36.826Z,95445.00
2018-11-11T11:00:12.932Z,95463.00
2018-11-11T11:02:49.300Z,95454.00
2018-11-11T11:05:19.886Z,95391.00
2018-11-11T11:07:50.370Z,95459.00
2018-11-11T11:10:20.831Z,95469.00
2018-11-11T11:12:51.289Z,95477.00
2018-11-11T11:15:21.663Z,95464.00
2018-11-11T11:17:52.020Z,95464.00
2018-11-11T11:20:22.437Z,95466.00
2018-11-11T11:22:52.914Z,95462.00
2018-11-11T11:25:23.381Z,95460.00
2018-11-11T11:27:53.818Z,95443.00
2018-11-11T11:30:24.371Z,95445.00
2018-11-11T11:32:54.813Z,95470.00
2018-11-11T11:35:25.335Z,95468.00
2018-11-11T11:37:55.822Z,95479.00
2018-11-11T11:40:26.159Z,95471.00
2018-11-11T11:42:56.671Z,95484.00
2018-11-11T11:45:27.187Z,95480.00
2018-11-11T11:47:57.709Z,95516.00
2018-11-11T11:50:28.205Z,95481.00
2018-11-11T11:52:58.673Z,95489.00
2018-11-11T11:55:31.131Z,95479.00
2018-11-11T11:58:20.151Z,95465.00
2018-11-11T12:00:50.542Z,95476.00
2018-11-11T12:03:20.969Z,95482.00
2018-11-11T12:05:51.372Z,95477.00
2018-11-11T12:08:21.768Z,95493.00
2018-11-11T12:10:52.218Z,95500.00
2018-11-11T12:13:22.640Z,95473.00
2018-11-11T12:15:52.923Z,95396.00
2018-11-11T12:18:23.297Z,95479.00
2018-11-11T12:20:53.787Z,95481.00
2018-11-11T12:23:24.261Z,95482.00
2018-11-11T12:25:54.547Z,95473.00
2018-11-11T12:28:28.605Z,95477.00
2018-11-11T12:30:59.462Z,95469.00
2018-11-11T12:33:30.338Z,95475.00
2018-11-11T12:36:00.607Z,95479.00
2018-11-11T12:38:32.080Z,95473.00
2018-11-11T12:41:02.773Z,95476.00
2018-11-11T12:43:34.166Z,95483.00
2018-11-11T12:46:13.223Z,95478.00
2018-11-11T12:48:44.422Z,95484.00
2018-11-11T12:51:14.962Z,95497.00
2018-11-11T12:53:45.387Z,95420.00
2018-11-11T12:56:15.998Z,95508.00
2018-11-11T12:58:46.610Z,95516.00
2018-11-11T13:01:17.162Z,95514.00
2018-11-11T13:03:47.829Z,95513.00
2018-11-11T13:06:18.154Z,95518.00
2018-11-11T13:08:49.312Z,95511.00
2018-11-11T13:11:19.911Z,95511.00
2018-11-11T13:13:50.353Z,95500.00
2018-11-11T13:16:20.795Z,95508.00
2018-11-11T13:18:51.262Z,95513.00
2018-11-11T13:21:21.702Z,95508.00
2018-11-11T13:23:52.058Z,95422.00
2018-11-11T13:26:22.355Z,95512.00
2018-11-11T13:28:52.659Z,95514.00
2018-11-11T13:31:23.135Z,95517.00
2018-11-11T13:33:53.554Z,95516.00
2018-11-11T13:36:23.871Z,95518.00
2018-11-11T13:38:54.442Z,95521.00
2018-11-11T13:41:24.819Z,95514.00
2018-11-11T13:43:55.199Z,95510.00
2018-11-11T13:46:25.581Z,95513.00
2018-11-11T13:48:55.825Z,95540.00
2018-11-11T13:51:26.374Z,95550.00
2018-11-11T13:53:56.718Z,95541.00
2018-11-11T13:56:27.159Z,95538.00
2018-11-11T13:59:01.667Z,95526.00
2018-11-11T14:01:32.335Z,95541.00
2018-11-11T14:04:03.649Z,95534.00
2018-11-11T14:06:34.295Z,95551.00
2018-11-11T14:09:11.237Z,95556.00
2018-11-11T14:11:42.575Z,95551.00
2018-11-11T14:14:13.137Z,95544.00
2018-11-11T14:16:44.869Z,95541.00
2018-11-11T14:19:16.307Z,95556.00
2018-11-11T14:21:47.235Z,95556.00
2018-11-11T14:24:19.087Z,95558.00
2018-11-11T14:26:49.830Z,95550.00
2018-11-11T14:29:21.706Z,95557.00
2018-11-11T14:31:53.582Z,95548.00
2018-11-11T14:34:29.257Z,95557.00
2018-11-11T14:37:02.642Z,95555.00
2018-11-11T14:39:33.927Z,95557.00
2018-11-11T14:42:05.395Z,95553.00
2018-11-11T14:44:37.400Z,95546.00
2018-11-11T14:47:07.923Z,95546.00
2018-11-11T14:49:46.961Z,95557.00
2018-11-11T14:52:18.924Z,95562.00
2018-11-11T14:54:50.534Z,95567.00
2018-11-11T14:57:21.115Z,95572.00
2018-11-11T14:59:51.908Z,95562.00
2018-11-11T15:02:22.365Z,95568.00
2018-11-11T15:04:52.719Z,95561.00
2018-11-11T15:07:23.150Z,95563.00
2018-11-11T15:09:55.811Z,95548.00
2018-11-11T15:12:26.608Z,95558.00
2018-11-11T15:14:59.338Z,95552.00
2018-11-11T15:17:30.752Z,95559.00
2018-11-11T15:20:01.164Z,95557.00
2018-11-11T15:22:31.714Z,95547.00
2018-11-11T15:25:02.390Z,95544.00
2018-11-11T15:27:32.633Z,95539.00
2018-11-11T15:30:03.132Z,95548.00
2018-11-11T15:32:33.592Z,95551.00
2018-11-11T15:35:04.266Z,95542.00
2018-11-11T15:37:35.108Z,95547.00
2018-11-11T15:40:08.864Z,95544.00
2018-11-11T15:42:40.290Z,95536.00
2018-11-11T15:45:14.823Z,95547.00
2018-11-11T15:47:45.275Z,95556.00
2018-11-11T15:50:17.963Z,95520.00
2018-11-11T15:52:50.779Z,95522.00
2018-11-11T15:55:23.393Z,95519.00
2018-11-11T15:57:54.386Z,95527.00
2018-11-11T16:00:26.374Z,95528.00
2018-11-11T16:02:56.857Z,95537.00
2018-11-11T16:05:27.209Z,95546.00
2018-11-11T16:07:58.367Z,95549.00
2018-11-11T16:10:31.367Z,95554.00
2018-11-11T16:13:01.760Z,95555.00
2018-11-11T16:15:34.886Z,95556.00
2018-11-11T16:18:07.336Z,95540.00
2018-11-11T16:20:38.232Z,95540.00
2018-11-11T16:23:09.522Z,95534.00
2018-11-11T16:25:40.900Z,95534.00
2018-11-11T16:28:11.411Z,95548.00
2018-11-11T16:30:43.512Z,95555.00
2018-11-11T16:33:18.643Z,95562.00
2018-11-11T16:35:49.540Z,95562.00
2018-11-11T16:38:19.919Z,95555.00
2018-11-11T16:40:51.320Z,95559.00
2018-11-11T16:43:21.575Z,95572.00
2018-11-11T16:45:54.008Z,95568.00
2018-11-11T16:48:28.871Z,95575.00
2018-11-11T16:51:07.014Z,95579.00
2018-11-11T16:53:42.991Z,95576.00
2018-11-11T16:56:14.498Z,95588.00
2018-11-11T16:58:45.660Z,95603.00
2018-11-11T17:01:16.091Z,95616.00
2018-11-11T17:03:46.480Z,95620.00
2018-11-11T17:06:20.007Z,95617.00
2018-11-11T17:08:51.468Z,95627.00
2018-11-11T17:11:23.984Z,95629.00
2018-11-11T17:13:54.676Z,95638.00
2018-11-11T17:16:26.326Z,95638.00
2018-11-11T17:18:57.050Z,95636.00
2018-11-11T17:21:27.473Z,95634.00
2018-11-11T17:23:57.782Z,95635.00
2018-11-11T17:26:28.134Z,95641.00
2018-11-11T17:28:58.687Z,95647.00
2018-11-11T17:31:29.250Z,95646.00
2018-11-11T17:33:59.652Z,95650.00
2018-11-11T17:36:30.687Z,95649.00
2018-11-11T17:39:01.796Z,95655.00
2018-11-11T17:41:32.318Z,95647.00
2018-11-11T17:44:03.130Z,95642.00
2018-11-11T17:46:34.486Z,95648.00
2018-11-11T17:49:05.036Z,95653.00
2018-11-11T17:51:35.648Z,95654.00
2018-11-11T17:54:06.085Z,95660.00
2018-11-11T17:56:36.494Z,95652.00
2018-11-11T17:59:07.281Z,95668.00
2018-11-11T18:01:37.688Z,95663.00
2018-11-11T18:04:08.078Z,95672.00
2018-11-11T18:06:38.545Z,95680.00
2018-11-11T18:09:10.834Z,95671.00
2018-11-11T18:11:41.267Z,95669.00
2018-11-11T18:14:11.826Z,95678.00
2018-11-11T18:16:42.582Z,95674.00
2018-11-11T18:19:13.412Z,95682.00
2018-11-11T18:21:44.162Z,95677.00
2018-11-11T18:24:14.967Z,95671.00
2018-11-11T18:26:46.178Z,95686.00
2018-11-11T18:29:16.813Z,95677.00
2018-11-11T18:31:50.384Z,95666.00
2018-11-11T18:34:21.105Z,95669.00
2018-11-11T18:36:51.575Z,95666.00
2018-11-11T18:39:23.169Z,95670.00
2018-11-11T18:41:54.134Z,95668.00
2018-11-11T18:44:25.393Z,95679.00
2018-11-11T18:46:56.700Z,95678.00
2018-11-11T18:49:29.153Z,95689.00
2018-11-11T18:52:00.772Z,95690.00
2018-11-11T18:54:34.071Z,95689.00
2018-11-11T18:57:04.873Z,95688.00
2018-11-11T18:59:37.840Z,95689.00
2018-11-11T19:02:08.441Z,95692.00
2018-11-11T19:04:46.234Z,95705.00
2018-11-11T19:07:16.739Z,95704.00
2018-11-11T19:09:47.351Z,95705.00
2018-11-11T19:12:20.467Z,95704.00
2018-11-11T19:14:51.047Z,95714.00
2018-11-11T19:17:21.675Z,95722.00
2018-11-11T19:19:52.645Z,95718.00
2018-11-11T19:22:23.268Z,95725.00
2018-11-11T19:24:54.031Z,95719.00
2018-11-11T19:27:25.939Z,95729.00
2018-11-11T19:29:56.727Z,95736.00
2018-11-11T19:32:29.299Z,95727.00
2018-11-11T19:35:01.513Z,95721.00
2018-11-11T19:37:33.257Z,95734.00
2018-11-11T19:40:11.149Z,95743.00
2018-11-11T19:42:46.293Z,95735.00
2018-11-11T19:45:19.283Z,95742.00
2018-11-11T19:47:49.796Z,95746.00
2018-11-11T19:50:22.732Z,95750.00
2018-11-11T19:52:54.402Z,95758.00
2018-11-11T19:55:25.162Z,95763.00
2018-11-11T19:57:55.620Z,95766.00
2018-11-11T20:00:30.903Z,95771.00
2018-11-11T20:03:03.046Z,95775.00
2018-11-11T20:05:33.392Z,95526.00
2018-11-11T20:08:04.041Z,95770.00
2018-11-11T20:10:34.566Z,95774.00
2018-11-11T20:13:07.340Z,95768.00
2018-11-11T20:15:37.815Z,95780.00
2018-11-11T20:18:10.748Z,95782.00
2018-11-11T20:20:41.209Z,95782.00
2018-11-11T20:23:11.568Z,95788.00
2018-11-11T20:25:42.031Z,95788.00
2018-11-11T20:28:14.375Z,95791.00
2018-11-11T20:30:48.333Z,95799.00
2018-11-11T20:33:19.356Z,95798.00
2018-11-11T20:35:51.882Z,95796.00
2018-11-11T20:38:22.215Z,95801.00
2018-11-11T20:40:54.583Z,95797.00
2018-11-11T20:43:25.406Z,95790.00
2018-11-11T20:45:57.662Z,95790.00
2018-11-11T20:48:29.052Z,95795.00
2018-11-11T20:51:00.210Z,95771.00
2018-11-11T20:53:30.933Z,95778.00
2018-11-11T20:56:02.591Z,95783.00
2018-11-11T20:58:34.945Z,95786.00
2018-11-11T21:01:09.301Z,95594.00
2018-11-11T21:03:41.478Z,95791.00
2018-11-11T21:06:12.396Z,95779.00
2018-11-11T21:08:50.260Z,95789.00
2018-11-11T21:11:48.418Z,95801.00
2018-11-11T21:17:49.817Z,95797.00
2018-11-11T21:20:35.173Z,95810.00
2018-11-11T21:26:35.640Z,95810.00
2018-11-11T21:29:15.060Z,95821.00
2018-11-11T21:31:48.486Z,95826.00
2018-11-11T21:34:25.800Z,95832.00
2018-11-11T21:37:06.539Z,95822.00
2018-11-11T21:39:41.071Z,95829.00
2018-11-11T21:42:14.072Z,95835.00
2018-11-11T21:44:54.016Z,95826.00
2018-11-11T21:47:29.892Z,95836.00
2018-11-11T21:50:01.068Z,95841.00
2018-11-11T21:52:36.471Z,95833.00
2018-11-11T21:55:28.546Z,95832.00
2018-11-11T21:58:02.739Z,95831.00
2018-11-11T22:00:34.710Z,95826.00
2018-11-11T22:03:06.172Z,95824.00
2018-11-11T22:05:36.626Z,95829.00
2018-11-11T22:11:26.728Z,95830.00
2018-11-11T22:14:06.967Z,95840.00
2018-11-11T22:16:40.873Z,95840.00
2018-11-11T22:19:16.687Z,95849.00
2018-11-11T22:21:47.495Z,95856.00
2018-11-11T22:24:25.616Z,95854.00
2018-11-11T22:27:03.314Z,95859.00
2018-11-11T22:30:08.023Z,95859.00
2018-11-11T22:32:48.712Z,95853.00
2018-11-11T22:35:27.154Z,95854.00
2018-11-11T22:37:59.457Z,95859.00
2018-11-11T22:40:36.520Z,95859.00
2018-11-11T22:43:16.470Z,95873.00
2018-11-11T22:45:50.688Z,95858.00
2018-11-11T22:51:10.903Z,95848.00
2018-11-11T22:53:42.672Z,95856.00
2018-11-11T22:56:14.256Z,95860.00
2018-11-11T22:58:45.037Z,95841.00
2018-11-11T23:01:19.330Z,95854.00
2018-11-11T23:03:50.352Z,95858.00
2018-11-11T23:06:21.428Z,95844.00
2018-11-11T23:08:53.611Z,95838.00
2018-11-11T23:11:24.551Z,95852.00
2018-11-11T23:14:01.183Z,95897.00
2018-11-11T23:16:32.189Z,95849.00
2018-11-11T23:19:03.938Z,95853.00
2018-11-11T23:21:34.776Z,95851.00
2018-11-11T23:24:06.221Z,95868.00
2018-11-11T23:26:37.642Z,95875.00
2018-11-11T23:29:08.010Z,95872.00
2018-11-11T23:31:38.443Z,95866.00
2018-11-11T23:34:10.033Z,95861.00
2018-11-11T23:36:40.470Z,95868.00
2018-11-11T23:39:11.598Z,95857.00
2018-11-11T23:41:43.009Z,95869.00
2018-11-11T23:44:13.571Z,95860.00
2018-11-11T23:46:44.298Z,95874.00
2018-11-11T23:49:15.380Z,95867.00
2018-11-11T23:51:47.501Z,95865.00
2018-11-11T23:54:17.953Z,95857.00
2018-11-11T23:56:49.309Z,95853.00
2018-11-11T23:59:20.601Z,95855.00
